createdAt,value
2023-04-27T00:00:22.354Z,78.95
2023-04-27T00:03:25.118Z,79.37
2023-04-27T00:06:28.496Z,79.45
2023-04-27T00:09:31.032Z,79.26
2023-04-27T00:12:34.262Z,79.41
2023-04-27T00:15:36.876Z,80.14
2023-04-27T00:18:39.976Z,80.45
2023-04-27T00:21:42.492Z,80.58
2023-04-27T00:24:45.387Z,80.77
2023-04-27T00:27:48.084Z,81.08
2023-04-27T00:30:54.348Z,81.31
2023-04-27T00:33:56.913Z,81.38
2023-04-27T00:36:59.746Z,81.72
2023-04-27T00:40:05.156Z,81.94
2023-04-27T00:43:08.056Z,82.11
2023-04-27T00:46:12.283Z,82.00
2023-04-27T00:49:15.806Z,81.53
2023-04-27T00:52:18.699Z,81.45
2023-04-27T00:55:21.643Z,81.98
2023-04-27T00:58:25.637Z,81.88
2023-04-27T01:01:30.387Z,81.94
2023-04-27T01:04:33.222Z,81.65
2023-04-27T01:07:40.142Z,81.88
2023-04-27T01:10:42.765Z,81.88
2023-04-27T01:13:46.310Z,82.27
2023-04-27T01:16:49.106Z,82.63
2023-04-27T01:19:55.315Z,82.89
2023-04-27T01:22:59.040Z,83.01
2023-04-27T01:26:02.043Z,83.39
2023-04-27T01:29:04.534Z,83.47
2023-04-27T01:32:07.497Z,82.88
2023-04-27T01:35:11.109Z,82.89
2023-04-27T01:38:14.032Z,82.98
2023-04-27T01:41:19.674Z,83.38
2023-04-27T01:44:24.086Z,83.54
2023-04-27T01:47:27.651Z,83.40
2023-04-27T01:50:30.844Z,83.41
2023-04-27T01:53:34.196Z,83.05
2023-04-27T01:56:36.989Z,83.30
2023-04-27T01:59:39.780Z,83.73
2023-04-27T02:02:42.893Z,83.45
2023-04-27T02:05:47.145Z,83.45
2023-04-27T02:08:49.775Z,83.96
2023-04-27T02:11:52.630Z,84.47
2023-04-27T02:14:55.893Z,84.69
2023-04-27T02:17:59.713Z,84.91
2023-04-27T02:21:02.331Z,84.65
2023-04-27T02:24:05.652Z,84.36
2023-04-27T02:27:08.218Z,84.22
2023-04-27T02:30:12.268Z,84.45
2023-04-27T02:33:15.375Z,84.39
2023-04-27T02:36:18.675Z,84.34
2023-04-27T02:39:21.382Z,84.02
2023-04-27T02:42:24.221Z,84.28
2023-04-27T02:45:26.844Z,84.58
2023-04-27T02:48:31.103Z,84.31
2023-04-27T02:51:33.736Z,84.52
2023-04-27T02:54:36.695Z,84.58
2023-04-27T02:57:39.220Z,84.42
2023-04-27T03:00:43.086Z,84.92
2023-04-27T03:03:47.748Z,84.65
2023-04-27T03:06:50.972Z,84.78
2023-04-27T03:09:53.500Z,84.91
2023-04-27T03:12:57.654Z,85.15
2023-04-27T03:16:00.498Z,85.41
2023-04-27T03:19:03.933Z,85.35
2023-04-27T03:22:06.869Z,85.71
2023-04-27T03:25:11.172Z,85.76
2023-04-27T03:28:14.471Z,86.05
2023-04-27T03:31:17.466Z,85.89
2023-04-27T03:34:21.791Z,85.36
2023-04-27T03:37:24.796Z,84.63
2023-04-27T03:40:28.662Z,84.96
2023-04-27T03:43:31.531Z,84.45
2023-04-27T03:46:34.427Z,84.38
2023-04-27T03:49:38.233Z,84.65
2023-04-27T03:52:42.134Z,85.00
2023-04-27T03:55:47.213Z,84.71
2023-04-27T03:58:50.276Z,84.30
2023-04-27T04:01:53.361Z,84.10
2023-04-27T04:04:56.626Z,84.73
2023-04-27T04:07:59.744Z,85.19
2023-04-27T04:11:03.865Z,85.09
2023-04-27T04:14:06.683Z,85.09
2023-04-27T04:17:11.005Z,85.06
2023-04-27T04:20:16.276Z,84.25
2023-04-27T04:23:19.105Z,84.03
2023-04-27T04:26:23.525Z,82.33
2023-04-27T04:29:27.230Z,82.24
2023-04-27T04:32:31.437Z,83.12
2023-04-27T04:35:34.404Z,82.83
2023-04-27T04:38:37.139Z,83.16
2023-04-27T04:41:40.643Z,82.48
2023-04-27T04:44:43.431Z,81.25
2023-04-27T04:47:47.399Z,81.88
2023-04-27T04:50:50.119Z,83.65
2023-04-27T04:53:54.837Z,83.64
2023-04-27T04:56:59.240Z,82.52
2023-04-27T05:00:02.569Z,83.65
2023-04-27T05:03:07.743Z,84.60
2023-04-27T05:06:10.884Z,80.44
2023-04-27T05:09:13.761Z,77.40
2023-04-27T05:12:17.836Z,75.03
2023-04-27T05:15:20.992Z,73.46
2023-04-27T05:18:23.957Z,72.23
2023-04-27T05:21:26.437Z,71.39
2023-04-27T05:24:29.326Z,70.29
2023-04-27T05:27:32.094Z,69.22
2023-04-27T05:30:35.699Z,68.46
2023-04-27T05:33:38.289Z,67.61
2023-04-27T05:36:41.111Z,67.90
2023-04-27T05:39:43.822Z,70.21
2023-04-27T05:42:47.100Z,70.36
2023-04-27T05:45:49.827Z,72.85
2023-04-27T05:48:52.986Z,73.56
2023-04-27T05:51:55.740Z,72.35
2023-04-27T05:54:59.140Z,70.46
2023-04-27T05:58:08.374Z,70.86
2023-04-27T06:01:12.648Z,70.64
2023-04-27T06:04:15.866Z,69.70
2023-04-27T06:07:18.746Z,68.07
2023-04-27T06:10:21.717Z,68.97
2023-04-27T06:13:24.357Z,66.70
2023-04-27T06:16:27.356Z,67.53
2023-04-27T06:19:30.063Z,62.37
2023-04-27T06:22:33.518Z,62.81
2023-04-27T06:25:38.808Z,63.72
2023-04-27T06:28:41.672Z,64.53
2023-04-27T06:31:44.402Z,63.38
2023-04-27T06:34:47.649Z,64.70
2023-04-27T06:37:50.190Z,63.72
2023-04-27T06:40:53.318Z,62.09
2023-04-27T06:43:57.469Z,59.57
2023-04-27T06:47:01.548Z,59.44
2023-04-27T06:50:04.495Z,59.77
2023-04-27T06:53:08.298Z,61.10
2023-04-27T06:56:12.055Z,60.86
2023-04-27T06:59:15.317Z,57.84
2023-04-27T07:02:18.063Z,56.48
2023-04-27T07:05:21.179Z,55.49
2023-04-27T07:08:23.732Z,56.18
2023-04-27T07:11:26.583Z,56.71
2023-04-27T07:14:29.763Z,54.27
2023-04-27T07:17:35.439Z,53.76
2023-04-27T07:20:38.345Z,52.14
2023-04-27T07:23:41.677Z,51.01
2023-04-27T07:26:44.663Z,51.25
2023-04-27T07:29:48.206Z,50.23
2023-04-27T07:32:54.525Z,48.59
2023-04-27T07:35:58.127Z,50.49
2023-04-27T07:39:01.414Z,49.74
2023-04-27T07:42:04.497Z,46.79
2023-04-27T07:45:08.511Z,47.76
2023-04-27T07:48:11.475Z,47.87
2023-04-27T07:51:15.996Z,45.44
2023-04-27T07:54:18.825Z,46.14
2023-04-27T07:57:21.652Z,45.62
2023-04-27T08:00:27.852Z,47.55
2023-04-27T08:03:30.837Z,43.59
2023-04-27T08:06:34.340Z,43.13
2023-04-27T08:09:37.994Z,38.82
2023-04-27T08:12:40.714Z,40.87
2023-04-27T08:15:43.537Z,41.24
2023-04-27T08:18:46.270Z,38.88
2023-04-27T08:21:49.017Z,40.42
2023-04-27T08:24:51.645Z,39.60
2023-04-27T08:27:54.528Z,38.69
2023-04-27T08:30:57.049Z,39.91
2023-04-27T08:33:59.914Z,39.45
2023-04-27T08:37:04.347Z,37.12
2023-04-27T08:40:08.217Z,39.67
2023-04-27T08:43:11.256Z,40.82
2023-04-27T08:46:14.129Z,39.01
2023-04-27T08:49:17.587Z,40.82
2023-04-27T08:52:20.599Z,41.82
2023-04-27T08:55:23.872Z,44.10
2023-04-27T08:58:37.305Z,45.17
2023-04-27T09:01:49.806Z,46.96
2023-04-27T09:04:52.911Z,46.83
2023-04-27T09:08:05.719Z,47.17
2023-04-27T09:11:08.918Z,45.07
2023-04-27T09:14:19.903Z,42.42
2023-04-27T09:17:33.568Z,41.19
2023-04-27T09:20:43.287Z,42.10
2023-04-27T09:23:46.526Z,41.17
2023-04-27T09:26:50.025Z,42.71
2023-04-27T09:29:52.890Z,39.65
2023-04-27T09:32:57.795Z,41.45
2023-04-27T09:36:03.193Z,37.11
2023-04-27T09:39:06.107Z,36.69
2023-04-27T09:42:09.360Z,40.45
2023-04-27T09:45:12.343Z,40.35
2023-04-27T09:48:15.618Z,42.32
2023-04-27T09:51:18.299Z,40.36
2023-04-27T09:54:22.825Z,42.42
2023-04-27T09:57:32.301Z,41.04
2023-04-27T10:01:08.908Z,40.74
2023-04-27T10:04:36.767Z,39.91
2023-04-27T10:07:41.086Z,38.77
2023-04-27T10:10:48.303Z,39.31
2023-04-27T10:13:54.458Z,37.43
2023-04-27T10:16:59.032Z,32.83
2023-04-27T10:20:04.035Z,33.05
2023-04-27T10:23:07.131Z,31.57
2023-04-27T10:26:09.680Z,30.17
2023-04-27T10:29:16.331Z,31.47
2023-04-27T10:32:21.472Z,32.42
2023-04-27T10:35:33.615Z,33.83
2023-04-27T10:38:40.541Z,36.02
2023-04-27T10:41:51.756Z,37.00
2023-04-27T10:44:57.167Z,35.24
2023-04-27T10:48:01.324Z,31.86
2023-04-27T10:51:04.413Z,32.23
2023-04-27T10:54:07.171Z,33.36
2023-04-27T10:57:10.914Z,34.70
2023-04-27T11:00:16.522Z,36.43
2023-04-27T11:03:22.117Z,35.95
2023-04-27T11:06:25.237Z,37.00
2023-04-27T11:09:28.244Z,36.03
2023-04-27T11:12:32.194Z,37.10
2023-04-27T11:15:55.697Z,34.29
2023-04-27T11:19:05.284Z,33.55
2023-04-27T11:22:07.879Z,35.88
2023-04-27T11:25:11.224Z,35.89
2023-04-27T11:28:20.419Z,35.93
2023-04-27T11:31:23.714Z,33.42
2023-04-27T11:34:26.580Z,30.07
2023-04-27T11:37:29.793Z,29.29
2023-04-27T11:40:34.511Z,29.60
2023-04-27T11:43:42.495Z,28.45
2023-04-27T11:46:47.472Z,33.83
2023-04-27T11:49:51.409Z,33.31
2023-04-27T11:52:54.227Z,31.63
2023-04-27T11:56:00.094Z,31.57
2023-04-27T11:59:03.173Z,27.75
2023-04-27T12:02:06.198Z,28.43
2023-04-27T12:05:10.204Z,27.80
2023-04-27T12:08:13.015Z,27.04
2023-04-27T12:11:15.885Z,27.88
2023-04-27T12:14:19.905Z,27.93
2023-04-27T12:17:23.357Z,28.25
2023-04-27T12:20:26.160Z,26.14
2023-04-27T12:23:29.389Z,27.97
2023-04-27T12:26:31.962Z,26.06
2023-04-27T12:29:35.299Z,27.26
2023-04-27T12:32:37.990Z,27.28
2023-04-27T12:35:41.342Z,28.94
2023-04-27T12:38:44.144Z,29.62
2023-04-27T12:41:48.076Z,27.52
2023-04-27T12:44:51.995Z,28.81
2023-04-27T12:48:03.466Z,28.47
2023-04-27T12:51:07.105Z,28.93
2023-04-27T12:54:11.126Z,27.28
2023-04-27T12:57:13.800Z,27.10
2023-04-27T13:00:17.429Z,31.21
2023-04-27T13:03:20.122Z,31.15
2023-04-27T13:06:23.532Z,31.79
2023-04-27T13:09:26.251Z,32.71
2023-04-27T13:12:29.334Z,31.07
2023-04-27T13:15:31.898Z,30.74
2023-04-27T13:18:35.593Z,31.36
2023-04-27T13:21:38.420Z,30.77
2023-04-27T13:24:42.320Z,33.41
2023-04-27T13:27:44.847Z,32.27
2023-04-27T13:30:48.915Z,31.96
2023-04-27T13:33:51.500Z,30.97
2023-04-27T13:36:54.593Z,30.11
2023-04-27T13:39:57.117Z,31.73
2023-04-27T13:43:00.047Z,32.88
2023-04-27T13:46:03.162Z,33.46
2023-04-27T13:49:06.541Z,33.45
2023-04-27T13:52:09.969Z,35.66
2023-04-27T13:55:13.401Z,34.09
2023-04-27T13:58:16.204Z,33.65
2023-04-27T14:01:20.143Z,34.40
2023-04-27T14:04:23.202Z,31.99
2023-04-27T14:07:26.026Z,33.37
2023-04-27T14:10:28.923Z,33.51
2023-04-27T14:13:31.579Z,32.31
2023-04-27T14:16:34.454Z,32.38
2023-04-27T14:19:37.363Z,32.59
2023-04-27T14:22:40.493Z,33.35
2023-04-27T14:25:42.927Z,33.35
2023-04-27T14:28:46.171Z,34.00
2023-04-27T14:31:48.868Z,33.57
2023-04-27T14:34:52.159Z,34.61
2023-04-27T14:37:56.783Z,34.24
2023-04-27T14:40:59.638Z,34.14
2023-04-27T14:44:02.207Z,35.57
2023-04-27T14:47:06.406Z,35.99
2023-04-27T14:50:09.316Z,36.61
2023-04-27T14:53:14.251Z,37.02
2023-04-27T14:56:16.952Z,37.33
2023-04-27T14:59:20.249Z,39.39
2023-04-27T15:02:23.298Z,38.63
2023-04-27T15:05:26.297Z,38.08
2023-04-27T15:08:30.669Z,38.57
2023-04-27T15:11:35.400Z,37.06
2023-04-27T15:14:37.940Z,37.87
2023-04-27T15:17:41.703Z,39.01
2023-04-27T15:20:44.731Z,39.21
2023-04-27T15:23:48.046Z,39.48
2023-04-27T15:26:50.934Z,39.59
2023-04-27T15:29:54.549Z,38.58
2023-04-27T15:32:57.197Z,39.34
2023-04-27T15:36:00.249Z,38.41
2023-04-27T15:39:02.814Z,37.93
2023-04-27T15:42:05.728Z,39.13
2023-04-27T15:45:10.111Z,35.42
2023-04-27T15:48:13.764Z,36.13
2023-04-27T15:51:16.820Z,36.96
2023-04-27T15:54:19.664Z,38.77
2023-04-27T15:57:22.264Z,38.04
2023-04-27T16:00:25.475Z,36.79
2023-04-27T16:03:28.560Z,37.16
2023-04-27T16:06:33.188Z,39.39
2023-04-27T16:09:36.811Z,37.57
2023-04-27T16:12:40.486Z,37.25
2023-04-27T16:15:43.269Z,37.54
2023-04-27T16:18:46.296Z,38.95
2023-04-27T16:21:49.645Z,37.61
2023-04-27T16:24:52.271Z,39.68
2023-04-27T16:27:55.412Z,38.96
2023-04-27T16:30:58.753Z,38.49
2023-04-27T16:34:01.694Z,38.44
2023-04-27T16:37:04.467Z,38.64
2023-04-27T16:40:08.427Z,40.12
2023-04-27T16:43:11.311Z,40.48
2023-04-27T16:46:15.359Z,40.75
2023-04-27T16:49:18.134Z,41.62
2023-04-27T16:52:20.982Z,42.97
2023-04-27T16:55:23.583Z,42.86
2023-04-27T16:58:26.655Z,42.70
2023-04-27T17:01:30.196Z,42.30
2023-04-27T17:04:35.407Z,41.65
2023-04-27T17:07:38.193Z,41.97
2023-04-27T17:10:41.603Z,42.91
2023-04-27T17:13:44.245Z,42.46
2023-04-27T17:16:47.837Z,43.48
2023-04-27T17:19:50.454Z,42.22
2023-04-27T17:22:53.438Z,43.43
2023-04-27T17:25:56.144Z,43.60
2023-04-27T17:29:01.346Z,43.90
2023-04-27T17:32:04.742Z,44.48
2023-04-27T17:35:08.094Z,44.02
2023-04-27T17:38:11.760Z,46.24
2023-04-27T17:41:14.648Z,46.35
2023-04-27T17:44:17.468Z,45.73
2023-04-27T17:47:22.277Z,45.17
2023-04-27T17:50:26.169Z,47.41
2023-04-27T17:53:29.477Z,48.35
2023-04-27T17:56:32.442Z,46.86
2023-04-27T17:59:36.348Z,47.47
2023-04-27T18:02:39.464Z,47.52
2023-04-27T18:05:42.483Z,47.85
2023-04-27T18:08:45.447Z,49.50
2023-04-27T18:11:48.584Z,48.10
2023-04-27T18:14:52.004Z,49.46
2023-04-27T18:17:55.311Z,49.97
2023-04-27T18:20:58.128Z,47.51
2023-04-27T18:24:01.252Z,48.49
2023-04-27T18:27:04.171Z,49.28
2023-04-27T18:30:10.378Z,49.19
2023-04-27T18:33:13.227Z,50.64
2023-04-27T18:36:16.325Z,50.92
2023-04-27T18:39:20.387Z,51.66
2023-04-27T18:42:23.793Z,51.21
2023-04-27T18:45:26.730Z,51.38
2023-04-27T18:48:29.792Z,51.72
2023-04-27T18:51:32.520Z,52.34
2023-04-27T18:54:35.360Z,53.42
2023-04-27T18:57:38.269Z,53.22
2023-04-27T19:00:41.634Z,52.72
2023-04-27T19:03:45.091Z,53.02
2023-04-27T19:06:50.027Z,52.70
2023-04-27T19:09:55.038Z,53.85
2023-04-27T19:12:58.632Z,53.84
2023-04-27T19:16:01.765Z,55.10
2023-04-27T19:19:04.685Z,54.90
2023-04-27T19:22:08.157Z,54.99
2023-04-27T19:25:11.288Z,55.57
2023-04-27T19:28:16.417Z,55.86
2023-04-27T19:31:19.670Z,56.49
2023-04-27T19:34:22.547Z,56.53
2023-04-27T19:37:27.501Z,55.62
2023-04-27T19:40:30.803Z,56.15
2023-04-27T19:43:34.179Z,57.42
2023-04-27T19:46:37.036Z,58.15
2023-04-27T19:49:40.310Z,58.49
2023-04-27T19:52:43.218Z,59.19
2023-04-27T19:55:46.081Z,58.99
2023-04-27T19:58:48.843Z,59.18
2023-04-27T20:01:51.963Z,58.74
2023-04-27T20:04:55.257Z,59.12
2023-04-27T20:07:58.419Z,60.21
2023-04-27T20:11:01.696Z,60.45
2023-04-27T20:14:04.627Z,60.36
2023-04-27T20:17:07.840Z,59.23
2023-04-27T20:20:11.460Z,59.12
2023-04-27T20:23:14.805Z,59.46
2023-04-27T20:26:17.803Z,60.13
2023-04-27T20:29:20.925Z,60.81
2023-04-27T20:32:23.548Z,61.87
2023-04-27T20:35:27.785Z,61.12
2023-04-27T20:38:30.615Z,60.59
2023-04-27T20:41:34.242Z,59.73
2023-04-27T20:44:39.068Z,59.22
2023-04-27T20:47:42.109Z,59.87
2023-04-27T20:50:45.729Z,60.19
2023-04-27T20:53:48.575Z,59.55
2023-04-27T20:56:57.824Z,58.70
2023-04-27T21:00:00.898Z,58.78
2023-04-27T21:03:04.233Z,58.06
2023-04-27T21:06:07.392Z,58.76
2023-04-27T21:09:10.395Z,58.89
2023-04-27T21:12:14.842Z,58.99
2023-04-27T21:15:17.481Z,59.06
2023-04-27T21:18:29.803Z,59.83
2023-04-27T21:21:33.218Z,59.44
2023-04-27T21:24:36.327Z,59.83
2023-04-27T21:27:41.871Z,59.90
2023-04-27T21:30:45.157Z,60.67
2023-04-27T21:33:47.940Z,61.07
2023-04-27T21:36:50.934Z,61.03
2023-04-27T21:39:53.544Z,61.30
2023-04-27T21:42:56.761Z,62.23
2023-04-27T21:45:59.764Z,62.39
2023-04-27T21:49:03.400Z,62.60
2023-04-27T21:52:06.105Z,62.89
2023-04-27T21:55:10.065Z,63.21
2023-04-27T21:58:12.767Z,62.81
2023-04-27T22:01:15.718Z,63.34
2023-04-27T22:04:18.993Z,63.79
2023-04-27T22:07:21.997Z,63.35
2023-04-27T22:10:25.030Z,64.05
2023-04-27T22:13:27.659Z,64.25
2023-04-27T22:16:30.592Z,64.13
2023-04-27T22:19:33.958Z,64.46
2023-04-27T22:22:37.693Z,64.31
2023-04-27T22:25:42.834Z,64.39
2023-04-27T22:28:46.027Z,64.80
2023-04-27T22:31:48.708Z,65.03
2023-04-27T22:34:51.639Z,65.38
2023-04-27T22:37:56.963Z,65.12
2023-04-27T22:40:59.882Z,65.28
2023-04-27T22:44:04.484Z,66.53
2023-04-27T22:47:07.474Z,65.94
2023-04-27T22:50:11.318Z,65.57
2023-04-27T22:53:14.220Z,65.37
2023-04-27T22:56:16.745Z,65.68
2023-04-27T22:59:25.678Z,66.07
2023-04-27T23:02:28.829Z,65.68
2023-04-27T23:05:32.630Z,65.42
2023-04-27T23:08:37.267Z,67.04
2023-04-27T23:11:40.821Z,68.03
2023-04-27T23:14:43.735Z,67.80
2023-04-27T23:17:46.781Z,67.67
2023-04-27T23:20:54.685Z,67.37
2023-04-27T23:23:57.636Z,66.66
2023-04-27T23:27:01.268Z,66.57
2023-04-27T23:30:04.970Z,66.82
2023-04-27T23:33:07.644Z,67.49
2023-04-27T23:36:10.882Z,67.37
2023-04-27T23:39:13.871Z,68.97
2023-04-27T23:42:17.197Z,68.59
2023-04-27T23:45:20.921Z,68.36
2023-04-27T23:48:23.821Z,68.31
2023-04-27T23:51:27.227Z,68.19
2023-04-27T23:54:33.183Z,67.47
2023-04-27T23:57:35.716Z,68.15
